Time;durP1;ratioP1;P1;durP2;ratioP2;P2;SDS_P1;SDS_P2;PMS_P1;PMS_P2;Temp;Humidity;BMP_temperature;BMP_pressure;BME280_temperature;BME280_humidity;BME280_pressure;Samples;Min_cycle;Max_cycle;Signal;HPM_P1;HPM_P2
2022/06/20 00:00:20;;;;;;;;;;;14.20;99.90;;;;;;5096395;28;20410;-65
2022/06/20 00:02:47;;;;;;;;;;;14.10;99.90;;;;;;5114684;28;20405;-66
2022/06/20 00:05:14;;;;;;;;;;;14.10;99.90;;;;;;5114356;28;20391;-66
2022/06/20 00:07:40;;;;;;;;;;;14.00;99.90;;;;;;5114384;28;20644;-66
2022/06/20 00:10:06;;;;;;;;;;;14.00;99.90;;;;;;5114236;28;19988;-66
2022/06/20 00:12:31;;;;;;;;;;;14.00;99.90;;;;;;5114178;28;19928;-69
2022/06/20 00:14:59;;;;;;;;;;;14.10;99.90;;;;;;5114409;28;20452;-66
2022/06/20 00:17:25;;;;;;;;;;;14.10;99.90;;;;;;5114452;28;19920;-67
2022/06/20 00:19:50;;;;;;;;;;;14.10;99.90;;;;;;5095628;28;20030;-66
2022/06/20 00:22:16;;;;;;;;;;;14.10;99.90;;;;;;5114109;28;20034;-67
2022/06/20 00:24:41;;;;;;;;;;;14.10;99.90;;;;;;5114324;28;19923;-66
2022/06/20 00:27:07;;;;;;;;;;;14.10;99.90;;;;;;5114332;28;19919;-67
2022/06/20 00:29:33;;;;;;;;;;;14.00;99.90;;;;;;5113842;28;19920;-69
2022/06/20 00:31:59;;;;;;;;;;;14.00;99.90;;;;;;5113931;28;20417;-66
2022/06/20 00:34:24;;;;;;;;;;;13.90;99.90;;;;;;5113883;28;19924;-66
2022/06/20 00:36:50;;;;;;;;;;;13.80;99.90;;;;;;5113970;28;19924;-67
2022/06/20 00:39:17;;;;;;;;;;;13.80;99.90;;;;;;5113869;28;19996;-66
2022/06/20 00:41:43;;;;;;;;;;;13.90;99.90;;;;;;5114071;28;20299;-66
2022/06/20 00:44:12;;;;;;;;;;;13.90;99.90;;;;;;5113867;28;19920;-67
2022/06/20 00:46:49;;;;;;;;;;;13.80;99.90;;;;;;5113868;28;19933;-67
2022/06/20 00:49:20;;;;;;;;;;;13.80;99.90;;;;;;5113477;27;20279;-67
2022/06/20 00:51:45;;;;;;;;;;;13.90;99.90;;;;;;5113845;27;19920;-67
2022/06/20 00:54:16;;;;;;;;;;;13.90;99.90;;;;;;5113540;28;19957;-67
2022/06/20 00:56:50;;;;;;;;;;;13.90;99.90;;;;;;5113622;28;19931;-67
2022/06/20 00:59:19;;;;;;;;;;;13.90;99.90;;;;;;5113277;28;19927;-66
2022/06/20 01:01:44;;;;;;;;;;;13.90;99.90;;;;;;5113467;28;19985;-66
2022/06/20 01:04:14;;;;;;;;;;;13.90;99.90;;;;;;5113454;28;19927;-66
2022/06/20 01:06:46;;;;;;;;;;;13.80;99.90;;;;;;5113479;28;19920;-67
2022/06/20 01:09:13;;;;;;;;;;;13.80;99.90;;;;;;5113236;28;19927;-69
2022/06/20 01:11:46;;;;;;;;;;;13.80;99.90;;;;;;5113291;28;20029;-66
2022/06/20 01:14:22;;;;;;;;;;;13.80;99.90;;;;;;5113064;28;19927;-67
2022/06/20 01:16:48;;;;;;;;;;;13.80;99.90;;;;;;5113667;27;20344;-67
2022/06/20 01:19:21;;;;;;;;;;;13.90;99.90;;;;;;5113078;28;20303;-67
2022/06/20 01:21:46;;;;;;;;;;;13.80;99.90;;;;;;5113216;28;19931;-66
2022/06/20 01:24:27;;;;;;;;;;;13.80;99.90;;;;;;5112259;28;20307;-66
2022/06/20 01:27:11;;;;;;;;;;;13.80;99.90;;;;;;5113185;28;19923;-66
2022/06/20 01:29:36;;;;;;;;;;;13.80;99.90;;;;;;5111580;28;20303;-66
2022/06/20 01:32:04;;;;;;;;;;;13.70;99.90;;;;;;5112931;28;19919;-66
2022/06/20 01:34:30;;;;;;;;;;;13.70;99.90;;;;;;5112685;28;19924;-66
2022/06/20 01:39:42;;;;;;;;;;;13.80;99.90;;;;;;5112526;28;19979;-66
2022/06/20 01:42:18;;;;;;;;;;;13.80;99.90;;;;;;5112789;28;20479;-66
2022/06/20 01:44:46;;;;;;;;;;;13.80;99.90;;;;;;5111193;28;20010;-67
2022/06/20 01:47:12;;;;;;;;;;;13.80;99.90;;;;;;5112624;28;19949;-66
2022/06/20 01:49:38;;;;;;;;;;;13.90;99.90;;;;;;5112206;28;19920;-66
2022/06/20 01:52:07;;;;;;;;;;;13.90;99.90;;;;;;5112696;28;19920;-67
2022/06/20 01:54:36;;;;;;;;;;;13.90;99.90;;;;;;5112518;28;19959;-66
2022/06/20 01:57:04;;;;;;;;;;;13.90;99.90;;;;;;5112569;28;19935;-66
2022/06/20 01:59:36;;;;;;;;;;;13.80;99.90;;;;;;5112144;28;19920;-66
2022/06/20 02:02:02;;;;;;;;;;;13.80;99.90;;;;;;5111017;28;19928;-66
2022/06/20 02:04:30;;;;;;;;;;;13.80;99.90;;;;;;5112182;28;19920;-66
2022/06/20 02:06:56;;;;;;;;;;;13.80;99.90;;;;;;5112486;28;20330;-67
2022/06/20 02:09:21;;;;;;;;;;;13.80;99.90;;;;;;5112095;28;19930;-66
2022/06/20 02:11:47;;;;;;;;;;;13.80;99.90;;;;;;5112255;28;20010;-67
2022/06/20 02:14:13;;;;;;;;;;;13.80;99.90;;;;;;5112007;28;20414;-67
2022/06/20 02:16:40;;;;;;;;;;;13.80;99.90;;;;;;5112003;28;19919;-67
2022/06/20 02:19:07;;;;;;;;;;;13.80;99.90;;;;;;5110800;28;19977;-67
2022/06/20 02:21:33;;;;;;;;;;;13.80;99.90;;;;;;5110758;28;19924;-66
2022/06/20 02:24:04;;;;;;;;;;;13.70;99.90;;;;;;5112480;28;19920;-66
2022/06/20 02:26:31;;;;;;;;;;;13.70;99.90;;;;;;5112306;28;19927;-66
2022/06/20 02:29:01;;;;;;;;;;;13.80;99.90;;;;;;5111879;28;19969;-66
2022/06/20 02:31:27;;;;;;;;;;;13.70;99.90;;;;;;5112005;28;19923;-67
2022/06/20 02:33:54;;;;;;;;;;;13.70;99.90;;;;;;5111996;28;19923;-66
2022/06/20 02:36:20;;;;;;;;;;;13.60;99.90;;;;;;5112050;28;19927;-67
2022/06/20 02:38:45;;;;;;;;;;;13.70;99.90;;;;;;5111569;28;19920;-66
2022/06/20 02:41:13;;;;;;;;;;;13.70;99.90;;;;;;5112024;28;19928;-67
2022/06/20 02:43:44;;;;;;;;;;;13.60;99.90;;;;;;5111663;28;19920;-66
2022/06/20 02:46:11;;;;;;;;;;;13.60;99.90;;;;;;5111998;28;19927;-66
2022/06/20 02:48:37;;;;;;;;;;;13.60;99.90;;;;;;5110417;28;19967;-66
2022/06/20 02:51:04;;;;;;;;;;;13.50;99.90;;;;;;5111799;28;20291;-66
2022/06/20 02:53:44;;;;;;;;;;;13.50;99.90;;;;;;5111522;28;19931;-66
2022/06/20 02:56:13;;;;;;;;;;;13.50;99.90;;;;;;5111521;28;19924;-66
2022/06/20 02:58:40;;;;;;;;;;;13.40;99.90;;;;;;5109273;28;19965;-67
2022/06/20 03:01:11;;;;;;;;;;;13.30;99.90;;;;;;5107654;28;19920;-66
2022/06/20 03:03:38;;;;;;;;;;;13.20;99.90;;;;;;5110063;28;19924;-66
2022/06/20 03:06:05;;;;;;;;;;;13.10;99.90;;;;;;5111688;28;19946;-67
2022/06/20 03:08:31;;;;;;;;;;;13.10;99.90;;;;;;5111028;28;19930;-66
2022/06/20 03:11:02;;;;;;;;;;;13.00;99.90;;;;;;5108975;28;19924;-65
2022/06/20 03:13:28;;;;;;;;;;;13.00;99.90;;;;;;5110522;28;20011;-66
2022/06/20 03:15:53;;;;;;;;;;;12.90;99.90;;;;;;5110543;28;19927;-66
2022/06/20 03:18:21;;;;;;;;;;;12.90;99.90;;;;;;5111364;28;19920;-66
2022/06/20 03:20:46;;;;;;;;;;;12.80;99.90;;;;;;5111393;28;19923;-67
2022/06/20 03:23:28;;;;;;;;;;;12.80;99.90;;;;;;5111420;28;20339;-66
2022/06/20 03:25:55;;;;;;;;;;;12.70;99.90;;;;;;5111577;28;19972;-66
2022/06/20 03:28:21;;;;;;;;;;;12.70;99.90;;;;;;5111344;28;20209;-67
2022/06/20 03:30:47;;;;;;;;;;;12.70;99.90;;;;;;5111307;28;20292;-67
2022/06/20 03:33:16;;;;;;;;;;;12.70;99.90;;;;;;5110012;28;20101;-67
2022/06/20 03:35:44;;;;;;;;;;;12.70;99.90;;;;;;5111031;28;19943;-66
2022/06/20 03:38:11;;;;;;;;;;;12.70;99.90;;;;;;5111175;28;20331;-66
2022/06/20 03:40:39;;;;;;;;;;;12.60;99.90;;;;;;5111239;28;19927;-66
2022/06/20 03:43:06;;;;;;;;;;;12.70;99.90;;;;;;5111822;28;19920;-67
2022/06/20 03:45:33;;;;;;;;;;;12.80;99.90;;;;;;5110136;28;19924;-67
2022/06/20 03:48:13;;;;;;;;;;;12.90;99.90;;;;;;5113884;28;19920;-66
2022/06/20 03:50:49;;;;;;;;;;;13.00;99.90;;;;;;5114929;28;20030;-67
2022/06/20 03:53:19;;;;;;;;;;;12.90;99.90;;;;;;5115166;28;20001;-66
2022/06/20 03:55:47;;;;;;;;;;;13.00;99.90;;;;;;5113383;28;19927;-66
2022/06/20 03:58:17;;;;;;;;;;;13.00;99.90;;;;;;5114762;28;20587;-65
2022/06/20 04:00:49;;;;;;;;;;;13.10;99.90;;;;;;5114544;28;19919;-66
2022/06/20 04:03:20;;;;;;;;;;;13.10;99.90;;;;;;5114803;28;20036;-66
2022/06/20 04:05:48;;;;;;;;;;;13.30;99.90;;;;;;5114465;28;19919;-65
2022/06/20 04:08:19;;;;;;;;;;;13.40;99.90;;;;;;5113816;28;21398;-67
2022/06/20 04:11:01;;;;;;;;;;;13.40;99.90;;;;;;5113014;28;19950;-66
2022/06/20 04:13:36;;;;;;;;;;;13.40;99.90;;;;;;5113022;28;20024;-67
2022/06/20 04:16:05;;;;;;;;;;;13.60;99.90;;;;;;5114498;28;19930;-67
2022/06/20 04:18:33;;;;;;;;;;;13.70;99.90;;;;;;5114208;28;19924;-67
2022/06/20 04:21:10;;;;;;;;;;;13.80;99.90;;;;;;5114305;28;20027;-66
2022/06/20 04:23:35;;;;;;;;;;;13.90;99.90;;;;;;5114197;27;19920;-66
2022/06/20 04:26:07;;;;;;;;;;;14.00;99.90;;;;;;5113117;28;19930;-66
2022/06/20 04:28:36;;;;;;;;;;;14.00;99.90;;;;;;5113810;28;20440;-67
2022/06/20 04:31:03;;;;;;;;;;;14.00;99.90;;;;;;5114229;28;19923;-66
2022/06/20 04:33:33;;;;;;;;;;;14.00;99.90;;;;;;5114000;28;19924;-66
2022/06/20 04:36:17;;;;;;;;;;;14.10;99.90;;;;;;5114110;28;19919;-66
2022/06/20 04:38:50;;;;;;;;;;;14.10;99.90;;;;;;5113887;28;19958;-67
2022/06/20 04:41:36;;;;;;;;;;;14.20;99.90;;;;;;5114214;28;19928;-66
2022/06/20 04:44:05;;;;;;;;;;;14.30;99.90;;;;;;5113934;28;19943;-66
2022/06/20 04:46:38;;;;;;;;;;;14.40;99.90;;;;;;5113783;28;20539;-66
2022/06/20 04:49:04;;;;;;;;;;;14.40;99.90;;;;;;5113697;27;19980;-66
2022/06/20 04:51:32;;;;;;;;;;;14.50;99.90;;;;;;5113862;28;19923;-66
2022/06/20 04:53:57;;;;;;;;;;;14.70;99.90;;;;;;5113657;28;19928;-66
2022/06/20 04:56:29;;;;;;;;;;;14.90;99.90;;;;;;5113518;28;19927;-67
2022/06/20 04:59:00;;;;;;;;;;;15.10;99.90;;;;;;5112192;28;20010;-66
2022/06/20 05:01:26;;;;;;;;;;;15.10;99.90;;;;;;5113465;28;19927;-66
2022/06/20 05:03:57;;;;;;;;;;;15.10;99.90;;;;;;5113265;27;19924;-66
2022/06/20 05:06:26;;;;;;;;;;;15.00;99.90;;;;;;5113563;28;19946;-67
2022/06/20 05:08:53;;;;;;;;;;;15.10;99.90;;;;;;5113192;28;19924;-67
2022/06/20 05:11:33;;;;;;;;;;;15.20;99.90;;;;;;5113402;28;19926;-66
2022/06/20 05:14:09;;;;;;;;;;;15.20;99.90;;;;;;5113091;28;19924;-66
2022/06/20 05:16:42;;;;;;;;;;;15.20;99.90;;;;;;5113377;28;19924;-67
2022/06/20 05:19:12;;;;;;;;;;;15.60;99.90;;;;;;5112946;28;19924;-67
2022/06/20 05:21:41;;;;;;;;;;;15.60;99.90;;;;;;5113133;28;19927;-67
2022/06/20 05:24:11;;;;;;;;;;;15.80;99.90;;;;;;5112972;28;19973;-66
2022/06/20 05:26:39;;;;;;;;;;;16.00;99.90;;;;;;5113041;28;19927;-67
2022/06/20 05:29:07;;;;;;;;;;;16.10;99.90;;;;;;5112855;28;19926;-66
2022/06/20 05:31:34;;;;;;;;;;;16.10;99.90;;;;;;5111881;28;20018;-67
2022/06/20 05:34:04;;;;;;;;;;;16.30;99.90;;;;;;5112787;28;19971;-68
2022/06/20 05:36:32;;;;;;;;;;;16.10;99.90;;;;;;5112722;28;20443;-67
2022/06/20 05:39:03;;;;;;;;;;;16.30;99.90;;;;;;5112402;28;20037;-68
2022/06/20 05:41:29;;;;;;;;;;;16.40;99.90;;;;;;5112876;28;19920;-67
2022/06/20 05:43:55;;;;;;;;;;;16.50;99.90;;;;;;5112716;28;20399;-67
2022/06/20 05:46:35;;;;;;;;;;;16.60;99.90;;;;;;5112724;28;19924;-67
2022/06/20 05:49:05;;;;;;;;;;;16.70;99.90;;;;;;5112354;28;20015;-67
2022/06/20 05:51:33;;;;;;;;;;;17.00;99.90;;;;;;5112719;28;19923;-67
2022/06/20 05:54:03;;;;;;;;;;;17.10;99.90;;;;;;5112326;28;19924;-68
2022/06/20 05:56:33;;;;;;;;;;;17.20;99.90;;;;;;5112660;28;19920;-67
2022/06/20 05:58:59;;;;;;;;;;;17.20;99.90;;;;;;5112234;28;19920;-67
2022/06/20 06:01:30;;;;;;;;;;;17.10;99.90;;;;;;5112552;27;20371;-67
2022/06/20 06:03:59;;;;;;;;;;;17.30;99.90;;;;;;5110948;28;19931;-67
2022/06/20 06:06:27;;;;;;;;;;;17.20;99.90;;;;;;5112578;28;19998;-67
2022/06/20 06:09:00;;;;;;;;;;;17.50;99.90;;;;;;5112176;28;19920;-68
2022/06/20 06:11:39;;;;;;;;;;;17.40;99.90;;;;;;5112147;28;19973;-67
2022/06/20 06:14:07;;;;;;;;;;;17.50;99.90;;;;;;5111910;28;20020;-67
2022/06/20 06:16:48;;;;;;;;;;;17.60;99.90;;;;;;5112303;28;20677;-68
2022/06/20 06:19:30;;;;;;;;;;;17.50;99.90;;;;;;5111934;28;20002;-66
2022/06/20 06:21:58;;;;;;;;;;;17.50;99.90;;;;;;5112131;28;20314;-67
2022/06/20 06:24:25;;;;;;;;;;;17.60;99.90;;;;;;5111960;28;20024;-67
2022/06/20 06:26:52;;;;;;;;;;;17.70;99.90;;;;;;5111919;28;19920;-67
2022/06/20 06:29:21;;;;;;;;;;;17.80;99.90;;;;;;5111820;28;19970;-67
2022/06/20 06:31:48;;;;;;;;;;;17.90;99.90;;;;;;5112059;28;19920;-67
2022/06/20 06:34:19;;;;;;;;;;;17.90;99.90;;;;;;5111741;28;19924;-67
2022/06/20 06:36:49;;;;;;;;;;;17.70;99.90;;;;;;5111915;28;19927;-67
2022/06/20 06:39:26;;;;;;;;;;;17.70;99.90;;;;;;5111488;28;20387;-67
2022/06/20 06:41:54;;;;;;;;;;;17.90;99.90;;;;;;5111964;28;19928;-68
2022/06/20 06:44:23;;;;;;;;;;;18.00;99.90;;;;;;5111801;28;20334;-68
2022/06/20 06:46:51;;;;;;;;;;;17.90;99.90;;;;;;5111755;28;19938;-68
2022/06/20 06:49:37;;;;;;;;;;;17.80;99.90;;;;;;5111374;28;19931;-67
2022/06/20 06:52:09;;;;;;;;;;;17.70;99.90;;;;;;5111141;28;19934;-67
2022/06/20 06:54:40;;;;;;;;;;;17.90;99.90;;;;;;5111677;28;19923;-66
2022/06/20 06:57:23;;;;;;;;;;;18.00;99.90;;;;;;5111694;28;20360;-67
2022/06/20 06:59:55;;;;;;;;;;;17.80;99.90;;;;;;5111253;28;19920;-66
2022/06/20 07:02:22;;;;;;;;;;;18.10;99.90;;;;;;5111460;28;19931;-66
2022/06/20 07:04:57;;;;;;;;;;;17.90;99.90;;;;;;5111310;28;20432;-66
2022/06/20 07:07:51;;;;;;;;;;;18.20;99.90;;;;;;5111699;28;20013;-67
2022/06/20 07:10:22;;;;;;;;;;;18.30;99.90;;;;;;5093195;28;20015;-67
2022/06/20 07:12:51;;;;;;;;;;;18.40;99.90;;;;;;5111704;28;20429;-67
2022/06/20 07:15:20;;;;;;;;;;;18.40;99.90;;;;;;5110330;28;19924;-68
2022/06/20 07:17:46;;;;;;;;;;;18.20;99.90;;;;;;5111637;28;19919;-66
2022/06/20 07:20:12;;;;;;;;;;;18.30;99.90;;;;;;5111160;28;19929;-67
2022/06/20 07:22:39;;;;;;;;;;;18.00;99.90;;;;;;5113334;28;19927;-66
2022/06/20 07:25:05;;;;;;;;;;;18.00;99.90;;;;;;5115291;28;20337;-67
2022/06/20 07:27:39;;;;;;;;;;;18.00;99.90;;;;;;5115258;28;19924;-66
2022/06/20 07:30:05;;;;;;;;;;;17.90;99.90;;;;;;5115139;28;20306;-67
2022/06/20 07:32:30;;;;;;;;;;;18.10;99.90;;;;;;5115273;28;19923;-66
2022/06/20 07:34:58;;;;;;;;;;;18.20;99.90;;;;;;5114950;28;19934;-66
2022/06/20 07:37:26;;;;;;;;;;;18.30;99.90;;;;;;5115166;28;19919;-67
2022/06/20 07:39:57;;;;;;;;;;;18.50;99.90;;;;;;5115027;28;19963;-67
2022/06/20 07:42:40;;;;;;;;;;;18.60;99.90;;;;;;5115284;28;19973;-67
2022/06/20 07:45:09;;;;;;;;;;;18.70;99.90;;;;;;5115040;28;19967;-67
2022/06/20 07:47:42;;;;;;;;;;;18.90;99.90;;;;;;5114967;28;19919;-67
2022/06/20 07:50:12;;;;;;;;;;;18.90;99.90;;;;;;5114538;28;19930;-66
2022/06/20 07:52:41;;;;;;;;;;;19.00;99.90;;;;;;5114948;28;19920;-66
2022/06/20 07:55:13;;;;;;;;;;;19.00;99.90;;;;;;5114984;28;20002;-66
2022/06/20 07:57:40;;;;;;;;;;;19.10;99.90;;;;;;5115052;28;19951;-67
2022/06/20 08:00:09;;;;;;;;;;;19.00;99.90;;;;;;5114517;28;19920;-66
2022/06/20 08:02:34;;;;;;;;;;;19.10;99.90;;;;;;5114605;28;20065;-66
2022/06/20 08:05:01;;;;;;;;;;;19.20;99.90;;;;;;5114674;28;19932;-67
2022/06/20 08:07:53;;;;;;;;;;;19.20;99.90;;;;;;5114605;28;20675;-67
2022/06/20 08:10:39;;;;;;;;;;;19.30;99.90;;;;;;5110045;28;20151;-67
2022/06/20 08:13:09;;;;;;;;;;;19.40;99.90;;;;;;5114399;28;19974;-66
2022/06/20 08:15:42;;;;;;;;;;;19.50;99.90;;;;;;5113292;28;19949;-66
2022/06/20 08:18:08;;;;;;;;;;;19.50;99.90;;;;;;5114482;28;20005;-67
2022/06/20 08:20:37;;;;;;;;;;;19.50;99.90;;;;;;5114051;28;19919;-67
2022/06/20 08:23:12;;;;;;;;;;;19.60;99.90;;;;;;5114303;28;19919;-67
2022/06/20 08:25:44;;;;;;;;;;;19.40;99.90;;;;;;5114125;28;19923;-67
2022/06/20 08:28:10;;;;;;;;;;;19.40;99.90;;;;;;5114460;28;19920;-67
2022/06/20 08:30:43;;;;;;;;;;;19.60;99.90;;;;;;5114160;28;20002;-66
2022/06/20 08:33:27;;;;;;;;;;;19.50;99.90;;;;;;5114039;28;19930;-67
2022/06/20 08:36:05;;;;;;;;;;;19.40;99.90;;;;;;5114115;28;19967;-67
2022/06/20 08:38:38;;;;;;;;;;;19.60;99.90;;;;;;5113982;28;19928;-66
2022/06/20 08:41:09;;;;;;;;;;;19.50;99.90;;;;;;5114136;28;19966;-67
2022/06/20 08:44:04;;;;;;;;;;;19.60;99.90;;;;;;5114004;28;19926;-68
2022/06/20 08:46:56;;;;;;;;;;;19.70;99.90;;;;;;5030748;28;20406;-67
2022/06/20 08:50:00;;;;;;;;;;;19.50;99.90;;;;;;5013920;28;19959;-67
2022/06/20 08:52:26;;;;;;;;;;;19.40;99.90;;;;;;4956031;28;20303;-67
2022/06/20 08:54:51;;;;;;;;;;;19.30;99.90;;;;;;4971724;28;19930;-68
2022/06/20 08:57:22;;;;;;;;;;;19.40;99.90;;;;;;4998550;28;20453;-67
2022/06/20 08:59:56;;;;;;;;;;;19.50;99.90;;;;;;5030233;28;19925;-67
2022/06/20 09:02:39;;;;;;;;;;;19.50;99.90;;;;;;5030509;28;20079;-68
2022/06/20 09:05:24;;;;;;;;;;;19.40;99.90;;;;;;5030335;28;20015;-68
2022/06/20 09:07:55;;;;;;;;;;;19.60;99.90;;;;;;5030438;28;19948;-67
2022/06/20 09:10:39;;;;;;;;;;;19.70;99.90;;;;;;5030087;28;20405;-67
2022/06/20 09:13:07;;;;;;;;;;;19.70;99.90;;;;;;5030271;28;19976;-67
2022/06/20 09:15:51;;;;;;;;;;;19.80;99.90;;;;;;5030102;28;19921;-67
2022/06/20 09:18:35;;;;;;;;;;;19.90;99.90;;;;;;5013588;28;20015;-67
2022/06/20 09:21:18;;;;;;;;;;;19.80;99.90;;;;;;5030240;28;19980;-68
2022/06/20 09:23:55;;;;;;;;;;;19.70;99.90;;;;;;5099101;28;19973;-67
2022/06/20 09:26:31;;;;;;;;;;;19.90;99.90;;;;;;5113035;28;19969;-67
2022/06/20 09:29:02;;;;;;;;;;;19.90;99.90;;;;;;5112898;28;20014;-67
2022/06/20 09:31:39;;;;;;;;;;;20.00;99.90;;;;;;5112966;28;19919;-68
2022/06/20 09:34:31;;;;;;;;;;;20.00;99.90;;;;;;5112711;28;19924;-67
2022/06/20 09:36:57;;;;;;;;;;;20.10;99.90;;;;;;5029718;28;19925;-67
2022/06/20 09:39:34;;;;;;;;;;;20.10;99.90;;;;;;5029489;28;20305;-67
2022/06/20 09:42:05;;;;;;;;;;;20.10;99.90;;;;;;5029676;28;20386;-67
2022/06/20 09:44:42;;;;;;;;;;;19.90;99.90;;;;;;5029136;28;19925;-67
2022/06/20 09:47:18;;;;;;;;;;;20.00;99.90;;;;;;5029772;28;20408;-67
2022/06/20 09:50:00;;;;;;;;;;;20.00;99.90;;;;;;5013203;28;20399;-67
2022/06/20 09:52:32;;;;;;;;;;;19.90;99.50;;;;;;5013266;28;19971;-67
2022/06/20 09:55:02;;;;;;;;;;;20.00;98.00;;;;;;5029509;28;19979;-67
2022/06/20 09:57:32;;;;;;;;;;;19.90;97.40;;;;;;5029732;28;19969;-67
2022/06/20 10:00:01;;;;;;;;;;;19.80;98.20;;;;;;5029162;28;19991;-67
2022/06/20 10:02:35;;;;;;;;;;;19.50;98.60;;;;;;5029595;28;20668;-67
2022/06/20 10:05:21;;;;;;;;;;;19.60;98.60;;;;;;5029331;28;19925;-67
2022/06/20 10:07:51;;;;;;;;;;;19.80;99.40;;;;;;5029418;28;19925;-67
2022/06/20 10:10:28;;;;;;;;;;;20.10;99.10;;;;;;5029043;28;19921;-67
2022/06/20 10:13:02;;;;;;;;;;;19.80;98.80;;;;;;5041131;28;19920;-67
2022/06/20 10:16:03;;;;;;;;;;;19.90;99.00;;;;;;5112151;28;19926;-67
2022/06/20 10:18:41;;;;;;;;;;;20.00;98.80;;;;;;5028880;28;19921;-67
2022/06/20 10:21:19;;;;;;;;;;;19.70;97.80;;;;;;5101927;28;19931;-67
2022/06/20 10:23:44;;;;;;;;;;;19.80;98.40;;;;;;5111988;28;19919;-67
2022/06/20 10:26:21;;;;;;;;;;;19.80;99.00;;;;;;5111936;28;20425;-67
2022/06/20 10:28:47;;;;;;;;;;;19.80;99.20;;;;;;5110382;28;20022;-67
2022/06/20 10:31:12;;;;;;;;;;;19.90;99.90;;;;;;5093631;28;20399;-67
2022/06/20 10:33:45;;;;;;;;;;;20.00;99.20;;;;;;5111715;28;19924;-67
2022/06/20 10:36:11;;;;;;;;;;;19.90;98.60;;;;;;5112053;28;19924;-67
2022/06/20 10:38:36;;;;;;;;;;;19.80;99.10;;;;;;5111592;28;20285;-68
2022/06/20 10:41:22;;;;;;;;;;;20.00;99.80;;;;;;5111946;28;19920;-67
2022/06/20 10:43:57;;;;;;;;;;;20.00;99.30;;;;;;5097296;28;19924;-67
2022/06/20 10:46:26;;;;;;;;;;;20.10;99.30;;;;;;5111764;28;19920;-67
2022/06/20 10:49:08;;;;;;;;;;;20.10;99.40;;;;;;5111559;28;19920;-67
2022/06/20 10:51:37;;;;;;;;;;;20.30;99.10;;;;;;5112076;28;19972;-67
2022/06/20 10:54:21;;;;;;;;;;;20.50;97.40;;;;;;5111626;28;19932;-68
2022/06/20 10:57:04;;;;;;;;;;;20.30;96.50;;;;;;5112170;28;20041;-68
2022/06/20 10:59:37;;;;;;;;;;;20.30;97.00;;;;;;5115567;28;19954;-67
2022/06/20 11:02:02;;;;;;;;;;;20.30;97.80;;;;;;5116135;28;19924;-67
2022/06/20 11:04:39;;;;;;;;;;;20.20;98.40;;;;;;5115847;28;20163;-67
2022/06/20 11:07:05;;;;;;;;;;;20.30;98.80;;;;;;5115769;28;19920;-68
2022/06/20 11:09:49;;;;;;;;;;;20.10;98.70;;;;;;5115516;28;20304;-67
2022/06/20 11:12:23;;;;;;;;;;;20.30;99.10;;;;;;5115608;28;20394;-68
2022/06/20 11:15:04;;;;;;;;;;;20.60;98.60;;;;;;5114138;28;19923;-68
2022/06/20 11:17:51;;;;;;;;;;;20.40;99.00;;;;;;5115723;28;19919;-67
2022/06/20 11:20:31;;;;;;;;;;;20.70;97.20;;;;;;5115275;28;19931;-66
2022/06/20 11:23:13;;;;;;;;;;;20.50;96.10;;;;;;5114102;28;19924;-68
2022/06/20 11:26:00;;;;;;;;;;;20.50;97.50;;;;;;5114080;28;19919;-67
2022/06/20 11:28:31;;;;;;;;;;;20.60;97.60;;;;;;5115098;28;19962;-68
2022/06/20 11:31:25;;;;;;;;;;;20.80;97.60;;;;;;5115281;28;19931;-67
2022/06/20 11:34:09;;;;;;;;;;;20.80;97.60;;;;;;5115089;28;20383;-67
2022/06/20 11:36:54;;;;;;;;;;;20.80;95.40;;;;;;5115249;28;19930;-67
2022/06/20 11:39:20;;;;;;;;;;;20.80;97.10;;;;;;5114788;28;19920;-67
2022/06/20 11:41:50;;;;;;;;;;;20.90;96.60;;;;;;5115330;28;19920;-67
2022/06/20 11:44:35;;;;;;;;;;;21.00;95.40;;;;;;5113651;28;19926;-67
2022/06/20 11:47:03;;;;;;;;;;;21.20;95.50;;;;;;5115143;27;19928;-68
2022/06/20 11:49:48;;;;;;;;;;;21.20;94.20;;;;;;5114725;28;19920;-67
2022/06/20 11:52:32;;;;;;;;;;;21.20;94.00;;;;;;5114962;28;19920;-68
2022/06/20 11:55:04;;;;;;;;;;;21.30;94.50;;;;;;5114773;28;20407;-67
2022/06/20 11:57:50;;;;;;;;;;;21.40;95.30;;;;;;5114847;28;19920;-68
2022/06/20 12:00:20;;;;;;;;;;;21.30;96.00;;;;;;5072573;28;20376;-67
2022/06/20 12:02:57;;;;;;;;;;;21.50;95.00;;;;;;5114822;28;19967;-66
2022/06/20 12:05:40;;;;;;;;;;;21.50;94.40;;;;;;5114715;28;19970;-67
2022/06/20 12:08:15;;;;;;;;;;;21.50;94.10;;;;;;5114247;28;19919;-67
2022/06/20 12:10:52;;;;;;;;;;;21.40;93.50;;;;;;5114930;28;19927;-67
2022/06/20 12:13:24;;;;;;;;;;;21.50;93.80;;;;;;5114615;28;20627;-67
2022/06/20 12:15:57;;;;;;;;;;;21.70;92.90;;;;;;5114705;28;20455;-67
2022/06/20 12:23:18;;;;;;;;;;;21.60;93.70;;;;;;5114378;28;19924;-68
2022/06/20 12:24:16;;;;;;;;;;;21.30;93.00;;;;;;5114275;28;20002;-68
2022/06/20 12:26:41;;;;;;;;;;;21.60;93.40;;;;;;5114205;28;19978;-67
2022/06/20 12:29:15;;;;;;;;;;;21.20;93.70;;;;;;5113897;28;19959;-68
2022/06/20 12:31:43;;;;;;;;;;;21.40;93.40;;;;;;5113026;28;19927;-67
2022/06/20 12:34:27;;;;;;;;;;;21.50;93.80;;;;;;5114167;28;19924;-67
2022/06/20 12:36:56;;;;;;;;;;;21.20;94.60;;;;;;5113953;28;19920;-68
2022/06/20 12:39:24;;;;;;;;;;;21.00;95.20;;;;;;5113783;28;19939;-68
2022/06/20 12:41:54;;;;;;;;;;;21.00;95.10;;;;;;5112523;28;20006;-67
2022/06/20 12:44:38;;;;;;;;;;;21.10;94.40;;;;;;5113976;28;19919;-68
2022/06/20 12:47:07;;;;;;;;;;;21.10;93.60;;;;;;5112496;28;20375;-67
2022/06/20 12:49:44;;;;;;;;;;;21.10;92.50;;;;;;5113500;28;19927;-68
2022/06/20 12:52:10;;;;;;;;;;;21.20;92.10;;;;;;5112404;28;19962;-67
2022/06/20 12:54:47;;;;;;;;;;;21.10;91.90;;;;;;5112194;28;20368;-68
2022/06/20 12:57:22;;;;;;;;;;;20.90;92.60;;;;;;5113780;28;19973;-67
2022/06/20 12:59:47;;;;;;;;;;;21.00;93.60;;;;;;5113265;28;19928;-67
2022/06/20 13:02:13;;;;;;;;;;;21.20;93.50;;;;;;5113582;28;19919;-67
2022/06/20 13:04:41;;;;;;;;;;;20.80;93.50;;;;;;5113303;28;19964;-67
2022/06/20 13:07:09;;;;;;;;;;;20.60;92.70;;;;;;5113624;28;19923;-67
2022/06/20 13:09:35;;;;;;;;;;;20.80;93.40;;;;;;5113259;28;19920;-67
2022/06/20 13:12:19;;;;;;;;;;;20.50;94.50;;;;;;5113352;28;20395;-67
2022/06/20 13:15:04;;;;;;;;;;;20.50;95.50;;;;;;5111813;28;20307;-66
2022/06/20 13:17:38;;;;;;;;;;;20.50;95.80;;;;;;5112241;28;20338;-67
2022/06/20 13:20:22;;;;;;;;;;;20.40;96.00;;;;;;5112204;28;20299;-67
2022/06/20 13:22:54;;;;;;;;;;;20.40;95.90;;;;;;5113166;28;19924;-68
2022/06/20 13:25:20;;;;;;;;;;;20.30;95.50;;;;;;5113026;28;20023;-67
2022/06/20 13:28:04;;;;;;;;;;;20.10;95.40;;;;;;5113006;28;19959;-67
2022/06/20 13:30:49;;;;;;;;;;;20.30;96.50;;;;;;5111219;28;19949;-67
2022/06/20 13:33:21;;;;;;;;;;;20.60;96.20;;;;;;5098184;28;20404;-67
2022/06/20 13:35:51;;;;;;;;;;;20.70;94.30;;;;;;5112722;28;20354;-68
2022/06/20 13:38:21;;;;;;;;;;;20.70;94.40;;;;;;5112814;28;19923;-67
2022/06/20 13:40:50;;;;;;;;;;;20.60;93.90;;;;;;5112558;28;20448;-67
2022/06/20 13:43:20;;;;;;;;;;;20.60;94.50;;;;;;5111427;28;19920;-67
2022/06/20 13:46:06;;;;;;;;;;;20.60;94.30;;;;;;5112796;28;20303;-67
2022/06/20 13:48:49;;;;;;;;;;;20.60;94.30;;;;;;5111866;28;19927;-67
2022/06/20 13:51:20;;;;;;;;;;;20.60;94.80;;;;;;5112875;28;19920;-67
2022/06/20 13:53:48;;;;;;;;;;;20.80;95.70;;;;;;5112705;28;20291;-68
2022/06/20 13:56:26;;;;;;;;;;;20.80;95.80;;;;;;5112619;28;20287;-67
2022/06/20 13:59:10;;;;;;;;;;;20.60;94.90;;;;;;5112041;28;20372;-67
2022/06/20 14:01:38;;;;;;;;;;;20.50;94.30;;;;;;5112567;28;19945;-67
2022/06/20 14:04:08;;;;;;;;;;;20.50;95.00;;;;;;5111268;28;19920;-67
2022/06/20 14:06:43;;;;;;;;;;;20.70;94.30;;;;;;5112394;28;19927;-67
2022/06/20 14:09:16;;;;;;;;;;;21.00;92.80;;;;;;5111836;28;20419;-67
2022/06/20 14:11:43;;;;;;;;;;;20.90;94.30;;;;;;5110912;28;19924;-68
2022/06/20 14:14:32;;;;;;;;;;;20.90;94.60;;;;;;5112316;28;19923;-68
2022/06/20 14:17:18;;;;;;;;;;;21.00;94.60;;;;;;5101276;28;19969;-68
2022/06/20 14:19:46;;;;;;;;;;;21.00;94.50;;;;;;5111782;28;19920;-68
2022/06/20 14:22:34;;;;;;;;;;;21.10;93.10;;;;;;5112263;28;19923;-67
2022/06/20 14:25:17;;;;;;;;;;;21.20;93.40;;;;;;5112442;28;19920;-67
2022/06/20 14:27:47;;;;;;;;;;;21.00;92.20;;;;;;5112059;28;19920;-67
2022/06/20 14:30:12;;;;;;;;;;;21.10;92.90;;;;;;5110154;28;19927;-67
2022/06/20 14:32:44;;;;;;;;;;;21.30;93.70;;;;;;5111856;28;20421;-67
2022/06/20 14:35:21;;;;;;;;;;;20.70;93.90;;;;;;5111869;28;19924;-67
2022/06/20 14:37:56;;;;;;;;;;;20.50;94.20;;;;;;5112033;28;19934;-66
2022/06/20 14:40:40;;;;;;;;;;;20.50;94.60;;;;;;5111446;28;20357;-66
2022/06/20 14:43:24;;;;;;;;;;;20.60;94.70;;;;;;5111935;28;20007;-66
2022/06/20 14:45:58;;;;;;;;;;;20.20;95.50;;;;;;5111783;28;19920;-66
2022/06/20 14:48:29;;;;;;;;;;;20.30;95.60;;;;;;5111667;28;19920;-67
2022/06/20 14:51:01;;;;;;;;;;;20.30;95.90;;;;;;5111566;28;19923;-66